Hlavní strana
METAR-TAF:

METAR-TAF

Letiště :

Terst / Ronchi dei Legionari, Itálie

zeměpisná šířka: 45-49N, zeměpisná délka: 013-29E, výška: 12 m

Aktuální stav počasí

Zpráva byla vytvořena před 23 minutami, v 16:50 UTC
Východní vítr 10 kt
Teplota 8°C
Vlhkost vzduchu 39%
Tlak 1025 hPa
Viditelnost 10 km a více
Žádná oblačnost pod 1500 m, nevyskytují se cumulonimby.

METAR: LIPQ 171650Z 09010KT CAVOK 08/M05 Q1025

Čas: 18:13 (17:13 UTC)

Předpověď počasí

Zpráva byla vytvořena před 6 hodinami a 13 minutami, v 11:00 UTC
Předpověď platná od 17 v 12 UTC do 18 v 12 UTC
Východní vítr 15 kt
Viditelnost 10 km a více
Žádná oblačnost pod 1500 m, nevyskytují se cumulonimby.

TAF: LIPQ 171100Z 1712/1812 08015KT CAVOK

Stav a předpovědi počasí z více než 4 000 letišť (zprávy METAR a TAF).

Červené a žluté tečky na mapě představují dostupné meteorologické stanice.

Když kurzor umístíte na tečku, zobrazí se název stanice.

Pak kliknutím zobrazíte stav a předpověď počasí.

Chcete-li změnit mapu, kliknutím na zelené tlačítko se znaménkem +mapu přiblížíte, kliknutím na zelené tlačítko se znaménkem – mapu oddálíte a kliknutím na zelené šipky přejdete na sousední mapy.


METAR-TAF: